sensor_id;sensor_type;location;lat;lon;timestamp;temperature;humidity
72576;DHT22;60613;48.658;2.328;2023-02-04T07:02:38;21.10;36.50
72576;DHT22;60613;48.658;2.328;2023-02-04T07:05:04;21.10;37.60
72576;DHT22;60613;48.658;2.328;2023-02-04T07:07:30;21.10;37.50
72576;DHT22;60613;48.658;2.328;2023-02-04T07:09:56;21.10;37.30
72576;DHT22;60613;48.658;2.328;2023-02-04T07:12:21;21.20;37.30
72576;DHT22;60613;48.658;2.328;2023-02-04T07:14:47;21.10;37.10
72576;DHT22;60613;48.658;2.328;2023-02-04T07:17:13;21.20;37.10
72576;DHT22;60613;48.658;2.328;2023-02-04T07:19:38;21.20;38.20
72576;DHT22;60613;48.658;2.328;2023-02-04T07:22:04;21.20;36.90
72576;DHT22;60613;48.658;2.328;2023-02-04T07:24:30;21.30;36.90
72576;DHT22;60613;48.658;2.328;2023-02-04T07:26:55;21.30;36.80
72576;DHT22;60613;48.658;2.328;2023-02-04T07:29:21;21.30;36.80
72576;DHT22;60613;48.658;2.328;2023-02-04T07:31:47;21.30;36.70
72576;DHT22;60613;48.658;2.328;2023-02-04T07:34:16;21.40;36.70
72576;DHT22;60613;48.658;2.328;2023-02-04T07:36:41;21.40;36.70
72576;DHT22;60613;48.658;2.328;2023-02-04T07:39:07;21.30;36.60
72576;DHT22;60613;48.658;2.328;2023-02-04T07:41:33;21.40;36.70
72576;DHT22;60613;48.658;2.328;2023-02-04T07:43:59;21.40;36.70
72576;DHT22;60613;48.658;2.328;2023-02-04T07:46:24;21.40;37.90
72576;DHT22;60613;48.658;2.328;2023-02-04T07:48:50;21.40;36.80
72576;DHT22;60613;48.658;2.328;2023-02-04T07:51:16;21.20;37.40
72576;DHT22;60613;48.658;2.328;2023-02-04T07:53:41;21.00;38.10
72576;DHT22;60613;48.658;2.328;2023-02-04T07:56:07;20.70;38.80
72576;DHT22;60613;48.658;2.328;2023-02-04T07:58:33;20.50;39.40
72576;DHT22;60613;48.658;2.328;2023-02-04T08:00:58;20.20;40.00
72576;DHT22;60613;48.658;2.328;2023-02-04T08:03:25;20.00;40.60
72576;DHT22;60613;48.658;2.328;2023-02-04T08:05:51;19.80;41.00
72576;DHT22;60613;48.658;2.328;2023-02-04T08:08:17;19.70;41.20
72576;DHT22;60613;48.658;2.328;2023-02-04T08:10:43;19.70;41.50
72576;DHT22;60613;48.658;2.328;2023-02-04T08:13:08;19.60;41.70
72576;DHT22;60613;48.658;2.328;2023-02-04T08:15:34;19.60;42.10
72576;DHT22;60613;48.658;2.328;2023-02-04T08:18:00;19.50;42.20
72576;DHT22;60613;48.658;2.328;2023-02-04T08:20:26;19.40;42.40
72576;DHT22;60613;48.658;2.328;2023-02-04T08:22:51;19.40;42.50
72576;DHT22;60613;48.658;2.328;2023-02-04T08:25:17;19.40;42.50
72576;DHT22;60613;48.658;2.328;2023-02-04T08:27:42;19.40;42.70
72576;DHT22;60613;48.658;2.328;2023-02-04T08:30:09;19.40;42.70
72576;DHT22;60613;48.658;2.328;2023-02-04T08:32:35;19.40;42.70
72576;DHT22;60613;48.658;2.328;2023-02-04T08:35:01;19.40;42.50
72576;DHT22;60613;48.658;2.328;2023-02-04T08:37:26;19.50;42.00
72576;DHT22;60613;48.658;2.328;2023-02-04T08:39:52;19.60;41.60
72576;DHT22;60613;48.658;2.328;2023-02-04T08:42:18;19.70;41.30
72576;DHT22;60613;48.658;2.328;2023-02-04T08:44:44;19.80;41.10
72576;DHT22;60613;48.658;2.328;2023-02-04T08:47:10;19.90;41.30
72576;DHT22;60613;48.658;2.328;2023-02-04T08:49:36;19.90;41.20
72576;DHT22;60613;48.658;2.328;2023-02-04T08:52:02;20.00;41.80
72576;DHT22;60613;48.658;2.328;2023-02-04T08:54:30;20.00;41.70
72576;DHT22;60613;48.658;2.328;2023-02-04T08:56:56;20.10;41.60
72576;DHT22;60613;48.658;2.328;2023-02-04T08:59:21;20.20;41.40
72576;DHT22;60613;48.658;2.328;2023-02-04T09:01:49;20.20;41.10
72576;DHT22;60613;48.658;2.328;2023-02-04T09:04:20;20.30;40.90
72576;DHT22;60613;48.658;2.328;2023-02-04T09:06:46;20.40;40.80
72576;DHT22;60613;48.658;2.328;2023-02-04T09:09:13;20.50;40.70
72576;DHT22;60613;48.658;2.328;2023-02-04T09:11:39;20.60;40.40
72576;DHT22;60613;48.658;2.328;2023-02-04T09:14:04;20.70;40.30
72576;DHT22;60613;48.658;2.328;2023-02-04T09:16:30;20.70;40.30
72576;DHT22;60613;48.658;2.328;2023-02-04T09:18:56;20.80;39.80
72576;DHT22;60613;48.658;2.328;2023-02-04T09:21:23;20.80;39.80
72576;DHT22;60613;48.658;2.328;2023-02-04T09:23:48;20.90;39.40
72576;DHT22;60613;48.658;2.328;2023-02-04T09:26:14;21.00;39.20
72576;DHT22;60613;48.658;2.328;2023-02-04T09:28:40;21.00;39.00
72576;DHT22;60613;48.658;2.328;2023-02-04T09:31:05;21.00;39.10
72576;DHT22;60613;48.658;2.328;2023-02-04T09:33:32;21.10;39.20
72576;DHT22;60613;48.658;2.328;2023-02-04T09:35:57;21.10;39.30
72576;DHT22;60613;48.658;2.328;2023-02-04T09:38:23;21.20;39.40
72576;DHT22;60613;48.658;2.328;2023-02-04T09:40:53;21.20;39.40
72576;DHT22;60613;48.658;2.328;2023-02-04T09:43:26;21.20;39.40
72576;DHT22;60613;48.658;2.328;2023-02-04T09:45:53;21.20;39.60
72576;DHT22;60613;48.658;2.328;2023-02-04T09:48:20;21.20;39.50
72576;DHT22;60613;48.658;2.328;2023-02-04T09:50:46;21.20;39.60
72576;DHT22;60613;48.658;2.328;2023-02-04T09:53:16;21.30;39.60
72576;DHT22;60613;48.658;2.328;2023-02-04T09:55:44;21.20;39.50
72576;DHT22;60613;48.658;2.328;2023-02-04T09:58:13;21.20;40.80
72576;DHT22;60613;48.658;2.328;2023-02-04T10:00:42;21.30;39.50
72576;DHT22;60613;48.658;2.328;2023-02-04T10:03:14;21.30;39.30
72576;DHT22;60613;48.658;2.328;2023-02-04T10:05:42;21.30;39.00
72576;DHT22;60613;48.658;2.328;2023-02-04T10:08:14;21.40;39.30
72576;DHT22;60613;48.658;2.328;2023-02-04T10:10:42;21.40;39.00
72576;DHT22;60613;48.658;2.328;2023-02-04T10:13:17;21.30;38.90
72576;DHT22;60613;48.658;2.328;2023-02-04T10:15:45;21.40;38.80
72576;DHT22;60613;48.658;2.328;2023-02-04T10:18:18;21.40;39.00
72576;DHT22;60613;48.658;2.328;2023-02-04T10:20:44;21.30;39.10
72576;DHT22;60613;48.658;2.328;2023-02-04T10:23:10;21.40;39.20
72576;DHT22;60613;48.658;2.328;2023-02-04T10:25:36;21.30;39.20
72576;DHT22;60613;48.658;2.328;2023-02-04T10:28:02;21.30;39.10
72576;DHT22;60613;48.658;2.328;2023-02-04T10:30:29;21.30;40.40
72576;DHT22;60613;48.658;2.328;2023-02-04T10:33:10;21.30;39.10
72576;DHT22;60613;48.658;2.328;2023-02-04T10:35:46;21.30;40.30
72576;DHT22;60613;48.658;2.328;2023-02-04T10:38:12;21.30;39.20
72576;DHT22;60613;48.658;2.328;2023-02-04T10:40:37;21.30;39.20
72576;DHT22;60613;48.658;2.328;2023-02-04T10:43:12;21.30;39.20
72576;DHT22;60613;48.658;2.328;2023-02-04T10:45:44;21.30;39.20
72576;DHT22;60613;48.658;2.328;2023-02-04T10:48:17;21.30;39.00
72576;DHT22;60613;48.658;2.328;2023-02-04T10:50:45;21.30;39.00
72576;DHT22;60613;48.658;2.328;2023-02-04T10:53:20;21.30;38.80
72576;DHT22;60613;48.658;2.328;2023-02-04T10:56:15;21.30;39.00
72576;DHT22;60613;48.658;2.328;2023-02-04T10:58:42;21.30;39.00
72576;DHT22;60613;48.658;2.328;2023-02-04T11:01:13;21.30;38.90
72576;DHT22;60613;48.658;2.328;2023-02-04T11:03:40;21.30;38.80
72576;DHT22;60613;48.658;2.328;2023-02-04T11:06:22;21.40;38.70
72576;DHT22;60613;48.658;2.328;2023-02-04T11:08:49;21.40;38.60
72576;DHT22;60613;48.658;2.328;2023-02-04T11:11:20;21.40;38.50
72576;DHT22;60613;48.658;2.328;2023-02-04T11:16:46;21.50;38.60
72576;DHT22;60613;48.658;2.328;2023-02-04T11:19:13;21.50;38.90
72576;DHT22;60613;48.658;2.328;2023-02-04T11:26:49;21.50;39.50
72576;DHT22;60613;48.658;2.328;2023-02-04T11:29:28;21.50;39.60
72576;DHT22;60613;48.658;2.328;2023-02-04T11:37:42;21.50;39.80
72576;DHT22;60613;48.658;2.328;2023-02-04T11:40:23;21.50;40.00
72576;DHT22;60613;48.658;2.328;2023-02-04T11:42:49;21.60;39.80
72576;DHT22;60613;48.658;2.328;2023-02-04T11:45:24;21.60;39.80
72576;DHT22;60613;48.658;2.328;2023-02-04T11:47:51;21.60;39.90
72576;DHT22;60613;48.658;2.328;2023-02-04T11:50:24;21.60;39.90
72576;DHT22;60613;48.658;2.328;2023-02-04T11:52:50;21.60;39.90
72576;DHT22;60613;48.658;2.328;2023-02-04T11:55:18;21.70;39.80
72576;DHT22;60613;48.658;2.328;2023-02-04T11:57:44;21.70;39.80
72576;DHT22;60613;48.658;2.328;2023-02-04T12:00:14;21.70;39.70
72576;DHT22;60613;48.658;2.328;2023-02-04T12:03:02;21.80;39.70
72576;DHT22;60613;48.658;2.328;2023-02-04T12:05:41;21.80;40.90
72576;DHT22;60613;48.658;2.328;2023-02-04T12:08:22;21.80;39.60
72576;DHT22;60613;48.658;2.328;2023-02-04T12:13:29;21.90;39.50
72576;DHT22;60613;48.658;2.328;2023-02-04T12:16:02;21.90;39.50
72576;DHT22;60613;48.658;2.328;2023-02-04T12:18:32;21.90;39.70
72576;DHT22;60613;48.658;2.328;2023-02-04T12:20:59;22.00;39.50
72576;DHT22;60613;48.658;2.328;2023-02-04T12:23:26;21.90;39.50
72576;DHT22;60613;48.658;2.328;2023-02-04T12:25:53;22.00;39.50
72576;DHT22;60613;48.658;2.328;2023-02-04T12:28:18;22.00;39.50
72576;DHT22;60613;48.658;2.328;2023-02-04T12:30:44;22.00;39.40
72576;DHT22;60613;48.658;2.328;2023-02-04T12:33:10;22.10;39.30
72576;DHT22;60613;48.658;2.328;2023-02-04T12:35:36;22.10;39.40
72576;DHT22;60613;48.658;2.328;2023-02-04T12:38:02;22.10;39.40
72576;DHT22;60613;48.658;2.328;2023-02-04T12:40:27;22.10;39.30
72576;DHT22;60613;48.658;2.328;2023-02-04T12:42:53;22.10;39.20
72576;DHT22;60613;48.658;2.328;2023-02-04T12:45:19;22.10;40.40
72576;DHT22;60613;48.658;2.328;2023-02-04T12:47:44;22.10;39.10
72576;DHT22;60613;48.658;2.328;2023-02-04T12:50:13;22.10;39.10
72576;DHT22;60613;48.658;2.328;2023-02-04T12:52:39;22.20;39.10
72576;DHT22;60613;48.658;2.328;2023-02-04T12:55:07;22.20;39.30
72576;DHT22;60613;48.658;2.328;2023-02-04T12:57:33;22.10;39.00
72576;DHT22;60613;48.658;2.328;2023-02-04T12:59:59;22.10;39.00
72576;DHT22;60613;48.658;2.328;2023-02-04T13:02:26;22.10;39.00
72576;DHT22;60613;48.658;2.328;2023-02-04T13:04:52;22.10;39.40
72576;DHT22;60613;48.658;2.328;2023-02-04T13:07:18;22.10;39.20
72576;DHT22;60613;48.658;2.328;2023-02-04T13:09:44;22.10;39.40
72576;DHT22;60613;48.658;2.328;2023-02-04T13:12:10;22.10;39.40
72576;DHT22;60613;48.658;2.328;2023-02-04T13:14:38;22.10;39.60
72576;DHT22;60613;48.658;2.328;2023-02-04T13:17:04;22.00;39.50
72576;DHT22;60613;48.658;2.328;2023-02-04T13:19:30;22.00;39.60
72576;DHT22;60613;48.658;2.328;2023-02-04T13:21:57;22.00;39.60
72576;DHT22;60613;48.658;2.328;2023-02-04T13:24:23;22.00;39.90
72576;DHT22;60613;48.658;2.328;2023-02-04T13:26:48;22.00;39.90
72576;DHT22;60613;48.658;2.328;2023-02-04T13:29:14;22.10;39.80
72576;DHT22;60613;48.658;2.328;2023-02-04T13:31:39;22.00;39.60
72576;DHT22;60613;48.658;2.328;2023-02-04T13:34:05;22.00;39.50
72576;DHT22;60613;48.658;2.328;2023-02-04T13:36:31;22.10;39.60
72576;DHT22;60613;48.658;2.328;2023-02-04T13:38:56;22.10;39.40
72576;DHT22;60613;48.658;2.328;2023-02-04T13:41:24;22.10;39.40
72576;DHT22;60613;48.658;2.328;2023-02-04T13:43:50;22.10;39.40
72576;DHT22;60613;48.658;2.328;2023-02-04T13:46:15;22.10;39.40
72576;DHT22;60613;48.658;2.328;2023-02-04T13:48:41;22.10;39.40
72576;DHT22;60613;48.658;2.328;2023-02-04T13:51:06;22.10;39.60
72576;DHT22;60613;48.658;2.328;2023-02-04T13:53:32;22.10;39.20
72576;DHT22;60613;48.658;2.328;2023-02-04T13:55:58;22.10;39.20
72576;DHT22;60613;48.658;2.328;2023-02-04T13:58:24;22.10;39.20
72576;DHT22;60613;48.658;2.328;2023-02-04T14:00:50;22.20;39.30
72576;DHT22;60613;48.658;2.328;2023-02-04T14:03:15;22.20;39.40
72576;DHT22;60613;48.658;2.328;2023-02-04T14:05:41;22.10;39.30
72576;DHT22;60613;48.658;2.328;2023-02-04T14:08:06;22.10;39.30
72576;DHT22;60613;48.658;2.328;2023-02-04T14:10:32;22.10;39.20
72576;DHT22;60613;48.658;2.328;2023-02-04T14:12:58;22.10;39.10
72576;DHT22;60613;48.658;2.328;2023-02-04T14:15:23;22.20;39.10
72576;DHT22;60613;48.658;2.328;2023-02-04T14:17:49;22.20;38.90
72576;DHT22;60613;48.658;2.328;2023-02-04T14:20:15;22.20;38.90
72576;DHT22;60613;48.658;2.328;2023-02-04T14:22:41;22.10;39.00
72576;DHT22;60613;48.658;2.328;2023-02-04T14:25:07;22.10;38.90
72576;DHT22;60613;48.658;2.328;2023-02-04T14:27:34;22.10;38.80
72576;DHT22;60613;48.658;2.328;2023-02-04T14:30:01;22.10;38.80
72576;DHT22;60613;48.658;2.328;2023-02-04T14:32:26;22.10;38.90
72576;DHT22;60613;48.658;2.328;2023-02-04T14:34:53;22.10;38.80
72576;DHT22;60613;48.658;2.328;2023-02-04T14:37:18;22.10;39.00
72576;DHT22;60613;48.658;2.328;2023-02-04T14:39:44;22.10;38.70
72576;DHT22;60613;48.658;2.328;2023-02-04T14:42:09;22.10;38.70
72576;DHT22;60613;48.658;2.328;2023-02-04T14:44:35;22.20;38.60
72576;DHT22;60613;48.658;2.328;2023-02-04T14:47:00;22.20;38.70
72576;DHT22;60613;48.658;2.328;2023-02-04T14:49:26;22.20;38.90
72576;DHT22;60613;48.658;2.328;2023-02-04T14:51:51;22.20;39.20
72576;DHT22;60613;48.658;2.328;2023-02-04T14:54:17;22.20;39.10
72576;DHT22;60613;48.658;2.328;2023-02-04T14:56:43;22.20;38.90
72576;DHT22;60613;48.658;2.328;2023-02-04T14:59:10;22.30;39.10
72576;DHT22;60613;48.658;2.328;2023-02-04T15:01:36;22.30;38.80
72576;DHT22;60613;48.658;2.328;2023-02-04T15:04:02;22.30;39.00
72576;DHT22;60613;48.658;2.328;2023-02-04T15:06:27;22.30;39.20
72576;DHT22;60613;48.658;2.328;2023-02-04T15:08:53;22.30;39.30
72576;DHT22;60613;48.658;2.328;2023-02-04T15:11:19;22.30;39.60
72576;DHT22;60613;48.658;2.328;2023-02-04T15:13:44;22.30;39.80
72576;DHT22;60613;48.658;2.328;2023-02-04T15:16:10;22.30;39.60
72576;DHT22;60613;48.658;2.328;2023-02-04T15:18:36;22.20;40.00
72576;DHT22;60613;48.658;2.328;2023-02-04T15:21:02;22.20;40.20
72576;DHT22;60613;48.658;2.328;2023-02-04T15:23:27;22.20;40.50
72576;DHT22;60613;48.658;2.328;2023-02-04T15:25:53;22.30;40.60
72576;DHT22;60613;48.658;2.328;2023-02-04T15:28:22;22.30;40.50
72576;DHT22;60613;48.658;2.328;2023-02-04T15:30:48;22.30;40.60
72576;DHT22;60613;48.658;2.328;2023-02-04T15:33:14;22.30;40.60
72576;DHT22;60613;48.658;2.328;2023-02-04T15:35:41;22.30;40.80
72576;DHT22;60613;48.658;2.328;2023-02-04T15:38:07;22.30;40.60
72576;DHT22;60613;48.658;2.328;2023-02-04T15:40:32;22.40;40.50
72576;DHT22;60613;48.658;2.328;2023-02-04T15:42:58;22.40;40.50
72576;DHT22;60613;48.658;2.328;2023-02-04T15:45:23;22.40;40.70
72576;DHT22;60613;48.658;2.328;2023-02-04T15:47:49;22.40;40.80
72576;DHT22;60613;48.658;2.328;2023-02-04T15:50:15;22.40;41.60
72576;DHT22;60613;48.658;2.328;2023-02-04T15:52:41;22.40;41.90
72576;DHT22;60613;48.658;2.328;2023-02-04T15:55:07;22.40;41.90
72576;DHT22;60613;48.658;2.328;2023-02-04T15:57:32;22.40;41.40
72576;DHT22;60613;48.658;2.328;2023-02-04T15:59:58;22.40;41.10
72576;DHT22;60613;48.658;2.328;2023-02-04T16:02:23;22.50;41.30
72576;DHT22;60613;48.658;2.328;2023-02-04T16:04:49;22.40;41.30
72576;DHT22;60613;48.658;2.328;2023-02-04T16:07:16;22.40;41.20
72576;DHT22;60613;48.658;2.328;2023-02-04T16:09:41;22.40;41.10
72576;DHT22;60613;48.658;2.328;2023-02-04T16:12:08;22.40;41.00
72576;DHT22;60613;48.658;2.328;2023-02-04T16:14:33;22.40;40.80
72576;DHT22;60613;48.658;2.328;2023-02-04T16:16:59;22.40;40.60
72576;DHT22;60613;48.658;2.328;2023-02-04T16:19:26;22.40;40.60
72576;DHT22;60613;48.658;2.328;2023-02-04T16:21:52;22.40;40.50
72576;DHT22;60613;48.658;2.328;2023-02-04T16:24:17;22.30;40.20
72576;DHT22;60613;48.658;2.328;2023-02-04T16:26:44;22.40;40.20
72576;DHT22;60613;48.658;2.328;2023-02-04T16:29:09;22.40;40.10
72576;DHT22;60613;48.658;2.328;2023-02-04T16:31:35;22.40;40.00
72576;DHT22;60613;48.658;2.328;2023-02-04T16:34:01;22.40;40.00
72576;DHT22;60613;48.658;2.328;2023-02-04T16:36:26;22.30;40.10
72576;DHT22;60613;48.658;2.328;2023-02-04T16:38:52;22.20;40.10
72576;DHT22;60613;48.658;2.328;2023-02-04T16:41:17;22.20;40.20
72576;DHT22;60613;48.658;2.328;2023-02-04T16:43:43;22.20;40.20
72576;DHT22;60613;48.658;2.328;2023-02-04T16:46:09;22.20;40.10
72576;DHT22;60613;48.658;2.328;2023-02-04T16:48:36;22.20;39.90
72576;DHT22;60613;48.658;2.328;2023-02-04T16:51:02;22.20;40.00
72576;DHT22;60613;48.658;2.328;2023-02-04T16:53:28;22.20;39.90
72576;DHT22;60613;48.658;2.328;2023-02-04T16:55:54;22.20;39.90
72576;DHT22;60613;48.658;2.328;2023-02-04T16:58:20;22.20;39.80
72576;DHT22;60613;48.658;2.328;2023-02-04T17:00:46;22.20;39.80
72576;DHT22;60613;48.658;2.328;2023-02-04T17:03:12;22.20;40.80
72576;DHT22;60613;48.658;2.328;2023-02-04T17:05:38;22.30;39.50
72576;DHT22;60613;48.658;2.328;2023-02-04T17:08:05;22.20;39.60
72576;DHT22;60613;48.658;2.328;2023-02-04T17:10:31;22.20;39.60
72576;DHT22;60613;48.658;2.328;2023-02-04T17:13:15;22.20;39.70
72576;DHT22;60613;48.658;2.328;2023-02-04T17:15:41;22.20;39.70
72576;DHT22;60613;48.658;2.328;2023-02-04T17:18:06;22.20;39.70
72576;DHT22;60613;48.658;2.328;2023-02-04T17:20:32;22.20;40.80
72576;DHT22;60613;48.658;2.328;2023-02-04T17:22:58;22.10;39.50
72576;DHT22;60613;48.658;2.328;2023-02-04T17:25:23;22.10;39.60
72576;DHT22;60613;48.658;2.328;2023-02-04T17:27:50;22.10;39.50
72576;DHT22;60613;48.658;2.328;2023-02-04T17:30:17;22.10;39.60
72576;DHT22;60613;48.658;2.328;2023-02-04T17:32:43;22.10;39.50
72576;DHT22;60613;48.658;2.328;2023-02-04T17:35:09;22.20;39.50
72576;DHT22;60613;48.658;2.328;2023-02-04T17:37:35;22.20;39.40
72576;DHT22;60613;48.658;2.328;2023-02-04T17:40:01;22.10;39.40
72576;DHT22;60613;48.658;2.328;2023-02-04T17:42:26;22.10;39.40
72576;DHT22;60613;48.658;2.328;2023-02-04T17:44:52;22.10;39.40
72576;DHT22;60613;48.658;2.328;2023-02-04T17:47:18;22.10;39.40
72576;DHT22;60613;48.658;2.328;2023-02-04T17:49:43;22.10;39.40
72576;DHT22;60613;48.658;2.328;2023-02-04T17:52:09;22.10;39.30
72576;DHT22;60613;48.658;2.328;2023-02-04T17:54:35;22.20;39.30
72576;DHT22;60613;48.658;2.328;2023-02-04T17:57:15;22.20;39.10
72576;DHT22;60613;48.658;2.328;2023-02-04T17:59:42;22.20;38.90
72576;DHT22;60613;48.658;2.328;2023-02-04T18:02:26;22.30;38.80
72576;DHT22;60613;48.658;2.328;2023-02-04T18:04:58;22.30;38.70
72576;DHT22;60613;48.658;2.328;2023-02-04T18:07:24;22.30;38.70
72576;DHT22;60613;48.658;2.328;2023-02-04T18:09:50;22.30;38.70
72576;DHT22;60613;48.658;2.328;2023-02-04T18:12:17;22.20;38.60
72576;DHT22;60613;48.658;2.328;2023-02-04T18:14:43;22.20;38.60
72576;DHT22;60613;48.658;2.328;2023-02-04T18:17:13;22.20;38.60
72576;DHT22;60613;48.658;2.328;2023-02-04T18:19:40;22.20;38.50
72576;DHT22;60613;48.658;2.328;2023-02-04T18:22:14;22.20;38.60
72576;DHT22;60613;48.658;2.328;2023-02-04T18:24:42;22.20;38.70
72576;DHT22;60613;48.658;2.328;2023-02-04T18:27:21;22.10;38.70
72576;DHT22;60613;48.658;2.328;2023-02-04T18:29:52;22.20;38.80
72576;DHT22;60613;48.658;2.328;2023-02-04T18:32:22;22.20;38.70
72576;DHT22;60613;48.658;2.328;2023-02-04T18:34:53;22.20;38.80
72576;DHT22;60613;48.658;2.328;2023-02-04T18:37:28;22.20;38.70
72576;DHT22;60613;48.658;2.328;2023-02-04T18:42:38;22.20;38.60
72576;DHT22;60613;48.658;2.328;2023-02-04T18:45:30;22.20;38.50
72576;DHT22;60613;48.658;2.328;2023-02-04T18:47:58;22.20;38.50
72576;DHT22;60613;48.658;2.328;2023-02-04T18:50:25;22.20;38.50
72576;DHT22;60613;48.658;2.328;2023-02-04T18:53:00;22.20;38.40
72576;DHT22;60613;48.658;2.328;2023-02-04T18:55:44;22.20;38.40
72576;DHT22;60613;48.658;2.328;2023-02-04T19:00:59;22.30;38.20
72576;DHT22;60613;48.658;2.328;2023-02-04T19:03:27;22.30;38.20
72576;DHT22;60613;48.658;2.328;2023-02-04T19:05:55;22.30;38.20
72576;DHT22;60613;48.658;2.328;2023-02-04T19:08:28;22.20;38.20
72576;DHT22;60613;48.658;2.328;2023-02-04T19:10:58;22.20;38.20
72576;DHT22;60613;48.658;2.328;2023-02-04T19:13:38;22.20;38.20
72576;DHT22;60613;48.658;2.328;2023-02-04T19:18:48;22.20;38.40
72576;DHT22;60613;48.658;2.328;2023-02-04T19:24:14;22.30;38.20
72576;DHT22;60613;48.658;2.328;2023-02-04T19:27:01;22.20;38.10
72576;DHT22;60613;48.658;2.328;2023-02-04T19:29:39;22.30;38.20
72576;DHT22;60613;48.658;2.328;2023-02-04T19:32:27;22.20;38.00
72576;DHT22;60613;48.658;2.328;2023-02-04T19:34:56;22.20;38.10
72576;DHT22;60613;48.658;2.328;2023-02-04T19:37:30;22.20;38.30
72576;DHT22;60613;48.658;2.328;2023-02-04T19:40:00;22.20;38.30
72576;DHT22;60613;48.658;2.328;2023-02-04T19:42:35;22.20;39.70
72576;DHT22;60613;48.658;2.328;2023-02-04T19:47:43;22.10;38.40
72576;DHT22;60613;48.658;2.328;2023-02-04T19:50:15;22.10;38.50
72576;DHT22;60613;48.658;2.328;2023-02-04T19:52:50;22.10;38.60
72576;DHT22;60613;48.658;2.328;2023-02-04T19:57:44;22.10;38.60
72576;DHT22;60613;48.658;2.328;2023-02-04T20:02:53;22.00;38.70
72576;DHT22;60613;48.658;2.328;2023-02-04T20:05:19;22.00;38.70
72576;DHT22;60613;48.658;2.328;2023-02-04T20:07:45;22.00;38.80
72576;DHT22;60613;48.658;2.328;2023-02-04T20:12:46;22.00;38.90
72576;DHT22;60613;48.658;2.328;2023-02-04T20:15:18;22.00;38.70
72576;DHT22;60613;48.658;2.328;2023-02-04T20:17:45;22.00;38.70
72576;DHT22;60613;48.658;2.328;2023-02-04T20:20:29;22.00;38.70
72576;DHT22;60613;48.658;2.328;2023-02-04T20:22:56;22.00;38.60
72576;DHT22;60613;48.658;2.328;2023-02-04T20:27:59;22.00;38.50
72576;DHT22;60613;48.658;2.328;2023-02-04T20:30:28;22.00;38.60
72576;DHT22;60613;48.658;2.328;2023-02-04T20:33:03;22.00;38.50
72576;DHT22;60613;48.658;2.328;2023-02-04T20:38:12;22.00;38.50
72576;DHT22;60613;48.658;2.328;2023-02-04T20:40:39;22.00;38.50
72576;DHT22;60613;48.658;2.328;2023-02-04T20:45:54;22.00;38.50
72576;DHT22;60613;48.658;2.328;2023-02-04T20:50:53;22.00;38.40
72576;DHT22;60613;48.658;2.328;2023-02-04T20:53:25;22.00;38.40
72576;DHT22;60613;48.658;2.328;2023-02-04T20:55:58;22.00;38.30
72576;DHT22;60613;48.658;2.328;2023-02-04T20:58:40;22.00;38.40
72576;DHT22;60613;48.658;2.328;2023-02-04T21:01:31;22.00;38.30
72576;DHT22;60613;48.658;2.328;2023-02-04T21:07:00;22.00;38.30
72576;DHT22;60613;48.658;2.328;2023-02-04T21:09:29;22.00;38.30
72576;DHT22;60613;48.658;2.328;2023-02-04T21:11:56;22.00;38.20
72576;DHT22;60613;48.658;2.328;2023-02-04T21:14:23;22.00;38.30
72576;DHT22;60613;48.658;2.328;2023-02-04T21:16:50;22.00;38.30
72576;DHT22;60613;48.658;2.328;2023-02-04T21:19:16;22.00;38.30
72576;DHT22;60613;48.658;2.328;2023-02-04T21:21:43;22.00;38.20
72576;DHT22;60613;48.658;2.328;2023-02-04T21:24:09;22.00;38.30
72576;DHT22;60613;48.658;2.328;2023-02-04T21:26:34;22.00;38.20
72576;DHT22;60613;48.658;2.328;2023-02-04T21:29:00;21.90;38.40
72576;DHT22;60613;48.658;2.328;2023-02-04T21:31:26;21.90;38.30
72576;DHT22;60613;48.658;2.328;2023-02-04T21:33:51;22.00;38.40
72576;DHT22;60613;48.658;2.328;2023-02-04T21:36:18;22.00;38.50
72576;DHT22;60613;48.658;2.328;2023-02-04T21:38:44;22.00;38.50
72576;DHT22;60613;48.658;2.328;2023-02-04T21:41:12;21.90;38.70
72576;DHT22;60613;48.658;2.328;2023-02-04T21:43:38;21.90;38.60
72576;DHT22;60613;48.658;2.328;2023-02-04T21:46:04;21.90;38.60
72576;DHT22;60613;48.658;2.328;2023-02-04T21:48:29;21.90;38.70
72576;DHT22;60613;48.658;2.328;2023-02-04T21:50:55;21.90;38.70
72576;DHT22;60613;48.658;2.328;2023-02-04T21:53:21;21.80;38.60
72576;DHT22;60613;48.658;2.328;2023-02-04T21:55:47;21.80;38.80
72576;DHT22;60613;48.658;2.328;2023-02-04T21:58:12;21.80;38.80
